Jefferson, NY (12093)

5:17 PM EDT en Octubre 23, 2014 (GMT -0400)
Van Dyke Ave | Change Station
CLOSE
Current Station
Estación meteorológica personal
Location: Stamford, NY
Altura: 1940 ft
Estaciones meteorológicas cercanas

Alt 1940 ft 42.42 °N, 74.62 °W | Updated 40 seconds ago

Nublado
Nublado
43.2 ° F
Sensación térmica 41 ° F
N
4.0
Viento Variable Viento desde NNO
Gusts 4.0 mph

Hoy
Alta -- | Baja -- ° F
--% Posibilidad de precipitaciones
Ayer
Alta -- | Baja -- ° F
Precip. -- pul
7:20 AM 6:03 PM
Creciente menguante, 0% visible
Presión 29.83 pul
Visibilidad 10.0 Millas
Nubes Baja 900 ft
Muy nublado 1200 ft
Nublado 2400 ft
Vientos helados 41 ° F
Punto de rocío 43 ° F
Humedad 98%
Precipitaciones 0.97 pul
Espesor de la nieve No disponible.
UV 0 de una escala de 12
Polen .10 de una escala de 12
Ozono Buena
PM2.5 Buena
Flu Activity Sporadic
METAR KALB 232051Z 01009KT 10SM -RA FEW009 BKN012 OVC024 08/07 A2983 RMK AO2 SLP102 PCPN VRY LGT P0002 60002 T00830067 53001

More Conditions Fewer Conditions

Presión 29.83 pul
Visibilidad 10.0 Millas
Nubes Baja 900 ft
Muy nublado 1200 ft
Nublado 2400 ft
Vientos helados 41 ° F
Punto de rocío 43 ° F
Humedad 98%
Precipitaciones 0.97 pul
Espesor de la nieve No disponible.
UV 0 de una escala de 12
Polen .10 de una escala de 12
Ozono Buena
PM2.5 Buena
Flu Activity Sporadic
METAR KALB 232051Z 01009KT 10SM -RA FEW009 BKN012 OVC024 08/07 A2983 RMK AO2 SLP102 PCPN VRY LGT P0002 60002 T00830067 53001

More Conditions Fewer Conditions

10-Day Weather Forecast

Almanac

Astronomía

Oct. 23, 2014 Salida Puesta
Hora real 7:20 AM EDT 6:03 PM EDT
Crepúsculo civil 6:52 AM EDT 6:32 PM EDT
Crepúsculo náutico 6:19 AM EDT 7:05 PM EDT
Crepúsculo astronómico 5:46 AM EDT 7:38 PM EDT
Luna 6:57 AM EDT 6:04 PM EDT
Horas de luz 11h 40m
Horas de luz
10h 42m
Tomorrow will be 2m 42s shorter.
Creciente menguante, 0% of the Moon is Illuminated
Hoy
Creciente menguante
Oct 23
Nueva
Oct 30
Cuarto creciente
Nov 6
Luna llena
Nov 14
Cuarto menguante

Extremos de hoy

Máximos del estado Bajos del estado

Community

WunderPhotos

Upload Photos

1,764,372 ¡fotos cargadas!

WunderBlogs® & News

Nearby

Calidad del aire

  Calidad del aire Índice AQ Contaminante
Ayer Buena
OZONE
Ayer Buena
PM2.5
Real Buena
OZONE
Real Buena
PM2.5
Jueves Buena
PM2.5
Viernes Buena
PM2.5

Grosos de nieve

Estación Profundido Altura
No tenemos constancia de nieve nueva.

Actividad de terremotos

Ciudad Distance Mag. Tiempo y dato
No hay informes recientes de la actividad sísmica.
Magnitud mínima muestra es 2,5.

Temperaturas de aguas costeras

Lugar Temperatura
Sin partes meteorológicos de las estaciones

Estaciones meteorológicas cercanas